sensor_id;sensor_type;location;lat;lon;timestamp;P1;durP1;ratioP1;P2;durP2;ratioP2
5475;SDS011;2760;50.000;9.194;2023-04-15T00:02:13;6.83;;;5.20;;
5475;SDS011;2760;50.000;9.194;2023-04-15T00:04:42;7.80;;;5.17;;
5475;SDS011;2760;50.000;9.194;2023-04-15T00:07:09;8.03;;;6.70;;
5475;SDS011;2760;50.000;9.194;2023-04-15T00:09:36;6.50;;;5.60;;
5475;SDS011;2760;50.000;9.194;2023-04-15T00:12:03;8.77;;;6.53;;
5475;SDS011;2760;50.000;9.194;2023-04-15T00:14:32;10.20;;;5.40;;
5475;SDS011;2760;50.000;9.194;2023-04-15T00:16:59;5.60;;;5.00;;
5475;SDS011;2760;50.000;9.194;2023-04-15T00:19:27;6.67;;;5.30;;
5475;SDS011;2760;50.000;9.194;2023-04-15T00:21:54;8.30;;;4.80;;
5475;SDS011;2760;50.000;9.194;2023-04-15T00:24:22;5.63;;;5.13;;
5475;SDS011;2760;50.000;9.194;2023-04-15T00:26:49;5.60;;;5.00;;
5475;SDS011;2760;50.000;9.194;2023-04-15T00:29:16;7.60;;;5.60;;
5475;SDS011;2760;50.000;9.194;2023-04-15T00:31:44;11.27;;;6.30;;
5475;SDS011;2760;50.000;9.194;2023-04-15T00:34:11;6.60;;;5.43;;
5475;SDS011;2760;50.000;9.194;2023-04-15T00:36:41;7.17;;;6.23;;
5475;SDS011;2760;50.000;9.194;2023-04-15T00:39:08;11.00;;;5.70;;
5475;SDS011;2760;50.000;9.194;2023-04-15T00:41:35;10.67;;;5.67;;
5475;SDS011;2760;50.000;9.194;2023-04-15T00:44:04;8.30;;;6.30;;
5475;SDS011;2760;50.000;9.194;2023-04-15T00:46:32;6.40;;;5.70;;
5475;SDS011;2760;50.000;9.194;2023-04-15T00:49:03;7.10;;;6.37;;
5475;SDS011;2760;50.000;9.194;2023-04-15T00:51:31;7.03;;;5.87;;
5475;SDS011;2760;50.000;9.194;2023-04-15T00:54:01;6.27;;;5.27;;
5475;SDS011;2760;50.000;9.194;2023-04-15T00:56:29;6.33;;;5.10;;
5475;SDS011;2760;50.000;9.194;2023-04-15T00:58:57;7.50;;;5.73;;
5475;SDS011;2760;50.000;9.194;2023-04-15T01:01:25;6.50;;;5.37;;
5475;SDS011;2760;50.000;9.194;2023-04-15T01:03:52;8.50;;;5.10;;
5475;SDS011;2760;50.000;9.194;2023-04-15T01:06:20;8.63;;;5.50;;
5475;SDS011;2760;50.000;9.194;2023-04-15T01:08:47;9.03;;;6.13;;
5475;SDS011;2760;50.000;9.194;2023-04-15T01:11:14;9.20;;;5.03;;
5475;SDS011;2760;50.000;9.194;2023-04-15T01:13:42;8.37;;;5.60;;
5475;SDS011;2760;50.000;9.194;2023-04-15T01:16:09;9.20;;;5.73;;
5475;SDS011;2760;50.000;9.194;2023-04-15T01:18:37;23.10;;;9.70;;
5475;SDS011;2760;50.000;9.194;2023-04-15T01:21:05;23.93;;;11.37;;
5475;SDS011;2760;50.000;9.194;2023-04-15T01:23:36;25.83;;;10.20;;
5475;SDS011;2760;50.000;9.194;2023-04-15T01:26:05;18.50;;;9.10;;
5475;SDS011;2760;50.000;9.194;2023-04-15T01:28:33;20.03;;;8.93;;
5475;SDS011;2760;50.000;9.194;2023-04-15T01:31:06;17.13;;;8.37;;
5475;SDS011;2760;50.000;9.194;2023-04-15T01:33:36;15.67;;;8.47;;
5475;SDS011;2760;50.000;9.194;2023-04-15T01:36:03;12.07;;;6.97;;
5475;SDS011;2760;50.000;9.194;2023-04-15T01:38:32;22.23;;;7.73;;
5475;SDS011;2760;50.000;9.194;2023-04-15T01:41:00;9.67;;;6.17;;
5475;SDS011;2760;50.000;9.194;2023-04-15T01:43:29;9.70;;;6.60;;
5475;SDS011;2760;50.000;9.194;2023-04-15T01:45:57;12.20;;;6.97;;
5475;SDS011;2760;50.000;9.194;2023-04-15T01:48:24;8.60;;;5.90;;
5475;SDS011;2760;50.000;9.194;2023-04-15T01:50:51;10.97;;;5.70;;
5475;SDS011;2760;50.000;9.194;2023-04-15T01:53:21;8.47;;;5.60;;
5475;SDS011;2760;50.000;9.194;2023-04-15T01:55:48;11.70;;;5.93;;
5475;SDS011;2760;50.000;9.194;2023-04-15T01:58:16;9.13;;;5.03;;
5475;SDS011;2760;50.000;9.194;2023-04-15T02:00:44;8.50;;;6.20;;
5475;SDS011;2760;50.000;9.194;2023-04-15T02:03:11;13.60;;;6.57;;
5475;SDS011;2760;50.000;9.194;2023-04-15T02:05:38;9.30;;;5.70;;
5475;SDS011;2760;50.000;9.194;2023-04-15T02:08:05;7.43;;;5.43;;
5475;SDS011;2760;50.000;9.194;2023-04-15T02:10:32;8.50;;;5.60;;
5475;SDS011;2760;50.000;9.194;2023-04-15T02:12:59;6.93;;;5.27;;
5475;SDS011;2760;50.000;9.194;2023-04-15T02:15:27;5.50;;;4.90;;
5475;SDS011;2760;50.000;9.194;2023-04-15T02:17:56;8.63;;;5.90;;
5475;SDS011;2760;50.000;9.194;2023-04-15T02:20:24;7.27;;;4.97;;
5475;SDS011;2760;50.000;9.194;2023-04-15T02:22:52;5.00;;;4.50;;
5475;SDS011;2760;50.000;9.194;2023-04-15T02:25:19;9.77;;;4.90;;
5475;SDS011;2760;50.000;9.194;2023-04-15T02:27:46;6.50;;;4.67;;
5475;SDS011;2760;50.000;9.194;2023-04-15T02:30:15;7.73;;;5.00;;
5475;SDS011;2760;50.000;9.194;2023-04-15T02:32:42;6.37;;;5.10;;
5475;SDS011;2760;50.000;9.194;2023-04-15T02:35:10;6.13;;;4.67;;
5475;SDS011;2760;50.000;9.194;2023-04-15T02:37:37;5.87;;;4.80;;
5475;SDS011;2760;50.000;9.194;2023-04-15T02:40:09;6.30;;;5.30;;
5475;SDS011;2760;50.000;9.194;2023-04-15T02:42:37;8.83;;;6.00;;
5475;SDS011;2760;50.000;9.194;2023-04-15T02:45:06;8.10;;;6.43;;
5475;SDS011;2760;50.000;9.194;2023-04-15T02:47:34;6.80;;;5.20;;
5475;SDS011;2760;50.000;9.194;2023-04-15T02:50:03;8.30;;;5.10;;
5475;SDS011;2760;50.000;9.194;2023-04-15T02:52:32;9.33;;;5.27;;
5475;SDS011;2760;50.000;9.194;2023-04-15T02:55:00;5.73;;;5.10;;
5475;SDS011;2760;50.000;9.194;2023-04-15T02:57:28;7.60;;;4.77;;
5475;SDS011;2760;50.000;9.194;2023-04-15T02:59:59;5.20;;;4.40;;
5475;SDS011;2760;50.000;9.194;2023-04-15T03:02:28;7.33;;;4.87;;
5475;SDS011;2760;50.000;9.194;2023-04-15T03:04:59;12.73;;;5.40;;
5475;SDS011;2760;50.000;9.194;2023-04-15T03:07:27;9.60;;;5.60;;
5475;SDS011;2760;50.000;9.194;2023-04-15T03:09:55;7.03;;;5.47;;
5475;SDS011;2760;50.000;9.194;2023-04-15T03:12:25;6.80;;;4.93;;
5475;SDS011;2760;50.000;9.194;2023-04-15T03:14:54;5.90;;;5.10;;
5475;SDS011;2760;50.000;9.194;2023-04-15T03:17:28;9.40;;;6.10;;
5475;SDS011;2760;50.000;9.194;2023-04-15T03:19:56;10.53;;;5.77;;
5475;SDS011;2760;50.000;9.194;2023-04-15T03:22:23;6.73;;;5.47;;
5475;SDS011;2760;50.000;9.194;2023-04-15T03:24:52;7.13;;;5.20;;
5475;SDS011;2760;50.000;9.194;2023-04-15T03:27:20;13.53;;;5.60;;
5475;SDS011;2760;50.000;9.194;2023-04-15T03:29:47;5.77;;;4.53;;
5475;SDS011;2760;50.000;9.194;2023-04-15T03:32:15;5.63;;;4.40;;
5475;SDS011;2760;50.000;9.194;2023-04-15T03:34:42;9.80;;;3.93;;
5475;SDS011;2760;50.000;9.194;2023-04-15T03:37:09;6.30;;;5.07;;
5475;SDS011;2760;50.000;9.194;2023-04-15T03:39:37;8.90;;;5.50;;
5475;SDS011;2760;50.000;9.194;2023-04-15T03:42:04;9.60;;;7.30;;
5475;SDS011;2760;50.000;9.194;2023-04-15T03:44:33;8.13;;;6.43;;
5475;SDS011;2760;50.000;9.194;2023-04-15T03:47:00;9.47;;;6.87;;
5475;SDS011;2760;50.000;9.194;2023-04-15T03:49:27;8.33;;;6.10;;
5475;SDS011;2760;50.000;9.194;2023-04-15T03:51:54;6.00;;;5.20;;
5475;SDS011;2760;50.000;9.194;2023-04-15T03:54:21;6.20;;;5.50;;
5475;SDS011;2760;50.000;9.194;2023-04-15T03:56:48;6.17;;;4.63;;
5475;SDS011;2760;50.000;9.194;2023-04-15T03:59:15;6.23;;;5.50;;
5475;SDS011;2760;50.000;9.194;2023-04-15T04:01:44;6.10;;;4.80;;
5475;SDS011;2760;50.000;9.194;2023-04-15T04:04:11;7.20;;;5.73;;
5475;SDS011;2760;50.000;9.194;2023-04-15T04:06:38;7.17;;;5.40;;
5475;SDS011;2760;50.000;9.194;2023-04-15T04:09:05;6.33;;;4.80;;
5475;SDS011;2760;50.000;9.194;2023-04-15T04:11:32;7.77;;;4.87;;
5475;SDS011;2760;50.000;9.194;2023-04-15T04:13:59;7.30;;;4.30;;
5475;SDS011;2760;50.000;9.194;2023-04-15T04:16:25;3.93;;;3.63;;
5475;SDS011;2760;50.000;9.194;2023-04-15T04:18:54;5.40;;;4.07;;
5475;SDS011;2760;50.000;9.194;2023-04-15T04:21:21;4.20;;;3.70;;
5475;SDS011;2760;50.000;9.194;2023-04-15T04:23:48;6.60;;;4.57;;
5475;SDS011;2760;50.000;9.194;2023-04-15T04:26:15;5.60;;;4.30;;
5475;SDS011;2760;50.000;9.194;2023-04-15T04:28:42;9.37;;;4.10;;
5475;SDS011;2760;50.000;9.194;2023-04-15T04:31:09;10.43;;;3.50;;
5475;SDS011;2760;50.000;9.194;2023-04-15T04:33:37;10.93;;;3.80;;
5475;SDS011;2760;50.000;9.194;2023-04-15T04:36:06;4.40;;;3.80;;
5475;SDS011;2760;50.000;9.194;2023-04-15T04:38:33;6.10;;;4.73;;
5475;SDS011;2760;50.000;9.194;2023-04-15T04:41:00;14.27;;;4.20;;
5475;SDS011;2760;50.000;9.194;2023-04-15T04:43:27;6.03;;;4.30;;
5475;SDS011;2760;50.000;9.194;2023-04-15T04:45:54;5.17;;;4.30;;
5475;SDS011;2760;50.000;9.194;2023-04-15T04:48:21;6.47;;;4.33;;
5475;SDS011;2760;50.000;9.194;2023-04-15T04:50:48;7.03;;;4.77;;
5475;SDS011;2760;50.000;9.194;2023-04-15T04:53:16;6.47;;;4.90;;
5475;SDS011;2760;50.000;9.194;2023-04-15T04:55:43;6.47;;;5.20;;
5475;SDS011;2760;50.000;9.194;2023-04-15T04:58:10;9.17;;;6.27;;
5475;SDS011;2760;50.000;9.194;2023-04-15T05:00:38;7.67;;;5.93;;
5475;SDS011;2760;50.000;9.194;2023-04-15T05:03:06;8.00;;;5.50;;
5475;SDS011;2760;50.000;9.194;2023-04-15T05:05:33;4.83;;;4.40;;
5475;SDS011;2760;50.000;9.194;2023-04-15T05:08:02;7.43;;;4.97;;
5475;SDS011;2760;50.000;9.194;2023-04-15T05:10:31;5.50;;;4.77;;
5475;SDS011;2760;50.000;9.194;2023-04-15T05:12:58;9.20;;;3.97;;
5475;SDS011;2760;50.000;9.194;2023-04-15T05:15:25;4.80;;;3.90;;
5475;SDS011;2760;50.000;9.194;2023-04-15T05:17:52;5.00;;;4.50;;
5475;SDS011;2760;50.000;9.194;2023-04-15T05:20:21;5.47;;;4.40;;
5475;SDS011;2760;50.000;9.194;2023-04-15T05:22:48;5.90;;;4.63;;
5475;SDS011;2760;50.000;9.194;2023-04-15T05:25:15;11.80;;;5.50;;
5475;SDS011;2760;50.000;9.194;2023-04-15T05:27:44;8.73;;;5.43;;
5475;SDS011;2760;50.000;9.194;2023-04-15T05:30:11;5.53;;;4.53;;
5475;SDS011;2760;50.000;9.194;2023-04-15T05:32:38;5.40;;;4.37;;
5475;SDS011;2760;50.000;9.194;2023-04-15T05:35:05;9.63;;;4.97;;
5475;SDS011;2760;50.000;9.194;2023-04-15T05:37:32;9.20;;;6.10;;
5475;SDS011;2760;50.000;9.194;2023-04-15T05:40:00;10.90;;;5.00;;
5475;SDS011;2760;50.000;9.194;2023-04-15T05:42:28;10.97;;;8.43;;
5475;SDS011;2760;50.000;9.194;2023-04-15T05:44:56;15.10;;;9.47;;
5475;SDS011;2760;50.000;9.194;2023-04-15T05:47:23;10.43;;;7.70;;
5475;SDS011;2760;50.000;9.194;2023-04-15T05:49:50;8.03;;;6.40;;
5475;SDS011;2760;50.000;9.194;2023-04-15T05:52:17;8.30;;;6.90;;
5475;SDS011;2760;50.000;9.194;2023-04-15T05:54:44;12.60;;;6.17;;
5475;SDS011;2760;50.000;9.194;2023-04-15T05:57:11;15.80;;;7.10;;
5475;SDS011;2760;50.000;9.194;2023-04-15T05:59:38;7.53;;;6.13;;
5475;SDS011;2760;50.000;9.194;2023-04-15T06:02:07;8.70;;;6.60;;
5475;SDS011;2760;50.000;9.194;2023-04-15T06:04:35;9.73;;;6.30;;
5475;SDS011;2760;50.000;9.194;2023-04-15T06:07:03;8.37;;;6.67;;
5475;SDS011;2760;50.000;9.194;2023-04-15T06:09:30;8.00;;;6.20;;
5475;SDS011;2760;50.000;9.194;2023-04-15T06:11:57;9.17;;;6.30;;
5475;SDS011;2760;50.000;9.194;2023-04-15T06:14:25;7.73;;;6.03;;
5475;SDS011;2760;50.000;9.194;2023-04-15T06:16:52;9.47;;;6.70;;
5475;SDS011;2760;50.000;9.194;2023-04-15T06:19:20;6.20;;;5.60;;
5475;SDS011;2760;50.000;9.194;2023-04-15T06:21:47;8.00;;;6.40;;
5475;SDS011;2760;50.000;9.194;2023-04-15T06:24:14;11.00;;;6.33;;
5475;SDS011;2760;50.000;9.194;2023-04-15T06:26:41;8.30;;;6.00;;
5475;SDS011;2760;50.000;9.194;2023-04-15T06:29:08;13.70;;;5.90;;
5475;SDS011;2760;50.000;9.194;2023-04-15T06:31:35;5.33;;;4.70;;
5475;SDS011;2760;50.000;9.194;2023-04-15T06:34:02;15.90;;;6.33;;
5475;SDS011;2760;50.000;9.194;2023-04-15T06:36:30;6.73;;;5.47;;
5475;SDS011;2760;50.000;9.194;2023-04-15T06:38:57;7.27;;;4.97;;
5475;SDS011;2760;50.000;9.194;2023-04-15T06:41:24;6.70;;;6.00;;
5475;SDS011;2760;50.000;9.194;2023-04-15T06:43:51;8.23;;;6.87;;
5475;SDS011;2760;50.000;9.194;2023-04-15T06:46:18;17.53;;;6.07;;
5475;SDS011;2760;50.000;9.194;2023-04-15T06:48:45;12.13;;;7.03;;
5475;SDS011;2760;50.000;9.194;2023-04-15T06:51:12;10.10;;;7.53;;
5475;SDS011;2760;50.000;9.194;2023-04-15T06:53:40;8.33;;;6.77;;
5475;SDS011;2760;50.000;9.194;2023-04-15T06:56:08;11.53;;;7.67;;
5475;SDS011;2760;50.000;9.194;2023-04-15T06:58:35;11.40;;;7.67;;
5475;SDS011;2760;50.000;9.194;2023-04-15T07:01:02;12.80;;;8.60;;
5475;SDS011;2760;50.000;9.194;2023-04-15T07:03:30;10.87;;;7.53;;
5475;SDS011;2760;50.000;9.194;2023-04-15T07:05:57;11.97;;;8.30;;
5475;SDS011;2760;50.000;9.194;2023-04-15T07:08:23;16.70;;;7.37;;
5475;SDS011;2760;50.000;9.194;2023-04-15T07:10:52;11.60;;;7.80;;
5475;SDS011;2760;50.000;9.194;2023-04-15T07:13:19;10.50;;;8.03;;
5475;SDS011;2760;50.000;9.194;2023-04-15T07:15:46;14.87;;;7.67;;
5475;SDS011;2760;50.000;9.194;2023-04-15T07:18:13;11.47;;;9.17;;
5475;SDS011;2760;50.000;9.194;2023-04-15T07:20:40;11.10;;;8.23;;
5475;SDS011;2760;50.000;9.194;2023-04-15T07:23:08;10.13;;;7.90;;
5475;SDS011;2760;50.000;9.194;2023-04-15T07:25:35;12.20;;;8.77;;
5475;SDS011;2760;50.000;9.194;2023-04-15T07:28:03;15.90;;;8.20;;
5475;SDS011;2760;50.000;9.194;2023-04-15T07:30:31;13.13;;;7.90;;
5475;SDS011;2760;50.000;9.194;2023-04-15T07:32:58;14.33;;;9.50;;
5475;SDS011;2760;50.000;9.194;2023-04-15T07:35:26;14.50;;;8.23;;
5475;SDS011;2760;50.000;9.194;2023-04-15T07:37:53;13.97;;;8.30;;
5475;SDS011;2760;50.000;9.194;2023-04-15T07:40:20;17.77;;;9.17;;
5475;SDS011;2760;50.000;9.194;2023-04-15T07:42:47;14.33;;;8.80;;
5475;SDS011;2760;50.000;9.194;2023-04-15T07:45:15;12.70;;;9.17;;
5475;SDS011;2760;50.000;9.194;2023-04-15T07:47:42;15.00;;;9.27;;
5475;SDS011;2760;50.000;9.194;2023-04-15T07:50:09;18.23;;;10.90;;
5475;SDS011;2760;50.000;9.194;2023-04-15T07:52:36;11.67;;;8.80;;
5475;SDS011;2760;50.000;9.194;2023-04-15T07:55:04;16.30;;;10.27;;
5475;SDS011;2760;50.000;9.194;2023-04-15T07:57:32;12.43;;;8.97;;
5475;SDS011;2760;50.000;9.194;2023-04-15T07:59:59;15.83;;;10.83;;
5475;SDS011;2760;50.000;9.194;2023-04-15T08:02:39;14.70;;;9.87;;
5475;SDS011;2760;50.000;9.194;2023-04-15T08:05:07;18.40;;;10.00;;
5475;SDS011;2760;50.000;9.194;2023-04-15T08:07:35;15.40;;;9.80;;
5475;SDS011;2760;50.000;9.194;2023-04-15T08:10:03;13.27;;;10.23;;
5475;SDS011;2760;50.000;9.194;2023-04-15T08:12:31;19.07;;;10.23;;
5475;SDS011;2760;50.000;9.194;2023-04-15T08:14:57;17.87;;;10.43;;
5475;SDS011;2760;50.000;9.194;2023-04-15T08:17:25;14.40;;;10.47;;
5475;SDS011;2760;50.000;9.194;2023-04-15T08:19:53;17.10;;;9.70;;
5475;SDS011;2760;50.000;9.194;2023-04-15T08:22:21;14.63;;;9.87;;
5475;SDS011;2760;50.000;9.194;2023-04-15T08:24:48;15.33;;;9.70;;
5475;SDS011;2760;50.000;9.194;2023-04-15T08:27:15;16.23;;;9.73;;
5475;SDS011;2760;50.000;9.194;2023-04-15T08:29:43;13.57;;;9.60;;
5475;SDS011;2760;50.000;9.194;2023-04-15T08:32:10;12.30;;;8.80;;
5475;SDS011;2760;50.000;9.194;2023-04-15T08:34:39;11.00;;;8.50;;
5475;SDS011;2760;50.000;9.194;2023-04-15T08:37:08;15.50;;;8.40;;
5475;SDS011;2760;50.000;9.194;2023-04-15T08:39:35;13.73;;;8.07;;
5475;SDS011;2760;50.000;9.194;2023-04-15T08:42:02;10.77;;;8.00;;
5475;SDS011;2760;50.000;9.194;2023-04-15T08:44:33;12.90;;;7.63;;
5475;SDS011;2760;50.000;9.194;2023-04-15T08:47:01;14.40;;;8.53;;
5475;SDS011;2760;50.000;9.194;2023-04-15T08:49:30;17.13;;;9.20;;
5475;SDS011;2760;50.000;9.194;2023-04-15T08:51:58;8.43;;;6.27;;
5475;SDS011;2760;50.000;9.194;2023-04-15T08:54:27;13.20;;;8.10;;
5475;SDS011;2760;50.000;9.194;2023-04-15T08:56:54;7.27;;;5.50;;
5475;SDS011;2760;50.000;9.194;2023-04-15T08:59:23;9.70;;;4.30;;
5475;SDS011;2760;50.000;9.194;2023-04-15T09:01:50;5.43;;;4.20;;
5475;SDS011;2760;50.000;9.194;2023-04-15T09:04:17;17.57;;;5.43;;
5475;SDS011;2760;50.000;9.194;2023-04-15T09:06:46;5.53;;;3.10;;
5475;SDS011;2760;50.000;9.194;2023-04-15T09:09:13;4.53;;;3.60;;
5475;SDS011;2760;50.000;9.194;2023-04-15T09:11:41;6.07;;;4.10;;
5475;SDS011;2760;50.000;9.194;2023-04-15T09:14:08;4.00;;;3.60;;
5475;SDS011;2760;50.000;9.194;2023-04-15T09:16:55;5.23;;;4.17;;
5475;SDS011;2760;50.000;9.194;2023-04-15T09:19:23;5.00;;;3.43;;
5475;SDS011;2760;50.000;9.194;2023-04-15T09:21:52;4.77;;;4.37;;
5475;SDS011;2760;50.000;9.194;2023-04-15T09:24:20;4.27;;;3.90;;
5475;SDS011;2760;50.000;9.194;2023-04-15T09:26:50;6.17;;;4.10;;
5475;SDS011;2760;50.000;9.194;2023-04-15T09:29:18;3.87;;;3.53;;
5475;SDS011;2760;50.000;9.194;2023-04-15T09:31:45;7.70;;;3.87;;
5475;SDS011;2760;50.000;9.194;2023-04-15T09:34:12;5.83;;;3.80;;
5475;SDS011;2760;50.000;9.194;2023-04-15T09:36:51;7.60;;;4.37;;
5475;SDS011;2760;50.000;9.194;2023-04-15T09:39:19;4.80;;;4.07;;
5475;SDS011;2760;50.000;9.194;2023-04-15T09:41:46;5.47;;;4.27;;
5475;SDS011;2760;50.000;9.194;2023-04-15T09:44:29;10.30;;;5.47;;
5475;SDS011;2760;50.000;9.194;2023-04-15T09:46:56;6.23;;;4.73;;
5475;SDS011;2760;50.000;9.194;2023-04-15T09:49:23;6.37;;;3.93;;
5475;SDS011;2760;50.000;9.194;2023-04-15T09:51:50;6.37;;;4.50;;
5475;SDS011;2760;50.000;9.194;2023-04-15T09:54:24;10.67;;;4.83;;
5475;SDS011;2760;50.000;9.194;2023-04-15T09:56:50;4.33;;;3.93;;
5475;SDS011;2760;50.000;9.194;2023-04-15T09:59:20;5.57;;;4.40;;
5475;SDS011;2760;50.000;9.194;2023-04-15T10:01:48;5.90;;;5.00;;
5475;SDS011;2760;50.000;9.194;2023-04-15T10:04:15;6.50;;;4.60;;
5475;SDS011;2760;50.000;9.194;2023-04-15T10:06:42;6.43;;;5.17;;
5475;SDS011;2760;50.000;9.194;2023-04-15T10:09:09;8.03;;;5.40;;
5475;SDS011;2760;50.000;9.194;2023-04-15T10:11:36;8.10;;;4.70;;
5475;SDS011;2760;50.000;9.194;2023-04-15T10:14:05;7.53;;;4.87;;
5475;SDS011;2760;50.000;9.194;2023-04-15T10:16:33;9.00;;;4.90;;
5475;SDS011;2760;50.000;9.194;2023-04-15T10:19:04;7.10;;;4.83;;
5475;SDS011;2760;50.000;9.194;2023-04-15T10:21:32;7.33;;;5.40;;
5475;SDS011;2760;50.000;9.194;2023-04-15T10:24:00;5.40;;;4.60;;
5475;SDS011;2760;50.000;9.194;2023-04-15T10:26:29;5.43;;;4.90;;
5475;SDS011;2760;50.000;9.194;2023-04-15T10:28:56;6.87;;;5.43;;
5475;SDS011;2760;50.000;9.194;2023-04-15T10:31:25;6.30;;;4.60;;
5475;SDS011;2760;50.000;9.194;2023-04-15T10:33:52;6.20;;;4.80;;
5475;SDS011;2760;50.000;9.194;2023-04-15T10:36:20;5.37;;;4.80;;
5475;SDS011;2760;50.000;9.194;2023-04-15T10:38:47;7.63;;;4.30;;
5475;SDS011;2760;50.000;9.194;2023-04-15T10:41:14;6.10;;;4.40;;
5475;SDS011;2760;50.000;9.194;2023-04-15T10:43:47;7.63;;;5.30;;
5475;SDS011;2760;50.000;9.194;2023-04-15T10:46:20;5.03;;;4.40;;
5475;SDS011;2760;50.000;9.194;2023-04-15T10:48:51;6.70;;;4.50;;
5475;SDS011;2760;50.000;9.194;2023-04-15T10:51:26;7.23;;;5.13;;
5475;SDS011;2760;50.000;9.194;2023-04-15T10:53:55;5.40;;;4.07;;
5475;SDS011;2760;50.000;9.194;2023-04-15T10:56:23;7.30;;;5.33;;
5475;SDS011;2760;50.000;9.194;2023-04-15T10:58:50;6.63;;;4.80;;
5475;SDS011;2760;50.000;9.194;2023-04-15T11:01:18;9.60;;;5.00;;
5475;SDS011;2760;50.000;9.194;2023-04-15T11:03:47;40.77;;;21.13;;
5475;SDS011;2760;50.000;9.194;2023-04-15T11:06:16;4.73;;;4.10;;
5475;SDS011;2760;50.000;9.194;2023-04-15T11:08:53;3.87;;;3.47;;
5475;SDS011;2760;50.000;9.194;2023-04-15T11:11:22;2.43;;;2.23;;
5475;SDS011;2760;50.000;9.194;2023-04-15T11:14:14;2.67;;;2.00;;
5475;SDS011;2760;50.000;9.194;2023-04-15T11:16:41;1.80;;;1.70;;
5475;SDS011;2760;50.000;9.194;2023-04-15T11:19:09;2.17;;;1.97;;
5475;SDS011;2760;50.000;9.194;2023-04-15T11:21:37;2.20;;;2.10;;
5475;SDS011;2760;50.000;9.194;2023-04-15T11:24:04;4.50;;;2.30;;
5475;SDS011;2760;50.000;9.194;2023-04-15T11:26:31;3.43;;;2.50;;
5475;SDS011;2760;50.000;9.194;2023-04-15T11:28:58;2.43;;;2.23;;
5475;SDS011;2760;50.000;9.194;2023-04-15T11:31:25;2.87;;;2.63;;
5475;SDS011;2760;50.000;9.194;2023-04-15T11:33:54;3.07;;;2.87;;
5475;SDS011;2760;50.000;9.194;2023-04-15T11:36:25;3.63;;;3.30;;
5475;SDS011;2760;50.000;9.194;2023-04-15T11:38:56;2.67;;;2.47;;
5475;SDS011;2760;50.000;9.194;2023-04-15T11:41:23;3.83;;;3.37;;
5475;SDS011;2760;50.000;9.194;2023-04-15T11:43:50;6.50;;;3.63;;
5475;SDS011;2760;50.000;9.194;2023-04-15T11:46:17;3.53;;;3.23;;
5475;SDS011;2760;50.000;9.194;2023-04-15T11:48:45;4.13;;;3.37;;
5475;SDS011;2760;50.000;9.194;2023-04-15T11:51:12;4.33;;;3.83;;
5475;SDS011;2760;50.000;9.194;2023-04-15T11:53:40;4.87;;;3.50;;
5475;SDS011;2760;50.000;9.194;2023-04-15T11:56:10;8.33;;;3.77;;
5475;SDS011;2760;50.000;9.194;2023-04-15T11:58:42;4.73;;;4.23;;
5475;SDS011;2760;50.000;9.194;2023-04-15T12:01:10;5.63;;;4.40;;
5475;SDS011;2760;50.000;9.194;2023-04-15T12:03:38;7.00;;;4.10;;
5475;SDS011;2760;50.000;9.194;2023-04-15T12:06:10;4.90;;;3.50;;
5475;SDS011;2760;50.000;9.194;2023-04-15T12:08:59;3.70;;;3.30;;
5475;SDS011;2760;50.000;9.194;2023-04-15T12:11:36;7.43;;;4.63;;
5475;SDS011;2760;50.000;9.194;2023-04-15T12:14:06;6.13;;;4.07;;
5475;SDS011;2760;50.000;9.194;2023-04-15T12:16:53;5.10;;;4.07;;
5475;SDS011;2760;50.000;9.194;2023-04-15T12:19:23;5.13;;;2.97;;
5475;SDS011;2760;50.000;9.194;2023-04-15T12:21:52;4.30;;;3.77;;
5475;SDS011;2760;50.000;9.194;2023-04-15T12:24:22;10.20;;;3.20;;
5475;SDS011;2760;50.000;9.194;2023-04-15T12:26:52;4.30;;;3.93;;
5475;SDS011;2760;50.000;9.194;2023-04-15T12:29:24;3.73;;;3.37;;
5475;SDS011;2760;50.000;9.194;2023-04-15T12:32:34;2.93;;;2.73;;
5475;SDS011;2760;50.000;9.194;2023-04-15T12:35:01;5.70;;;3.17;;
5475;SDS011;2760;50.000;9.194;2023-04-15T12:37:29;5.27;;;3.40;;
5475;SDS011;2760;50.000;9.194;2023-04-15T12:39:56;3.70;;;3.10;;
5475;SDS011;2760;50.000;9.194;2023-04-15T12:42:24;5.20;;;2.97;;
5475;SDS011;2760;50.000;9.194;2023-04-15T12:44:51;3.37;;;3.07;;
5475;SDS011;2760;50.000;9.194;2023-04-15T12:47:18;3.50;;;3.20;;
5475;SDS011;2760;50.000;9.194;2023-04-15T12:49:45;4.83;;;3.30;;
5475;SDS011;2760;50.000;9.194;2023-04-15T12:52:13;3.83;;;3.17;;
5475;SDS011;2760;50.000;9.194;2023-04-15T12:54:40;3.40;;;3.10;;
5475;SDS011;2760;50.000;9.194;2023-04-15T12:57:07;3.20;;;2.90;;
5475;SDS011;2760;50.000;9.194;2023-04-15T12:59:36;3.47;;;3.17;;
5475;SDS011;2760;50.000;9.194;2023-04-15T13:02:03;2.57;;;2.37;;
5475;SDS011;2760;50.000;9.194;2023-04-15T13:04:30;3.17;;;2.87;;
5475;SDS011;2760;50.000;9.194;2023-04-15T13:06:56;5.30;;;3.83;;
5475;SDS011;2760;50.000;9.194;2023-04-15T13:09:23;2.50;;;2.40;;
5475;SDS011;2760;50.000;9.194;2023-04-15T13:11:51;2.90;;;2.70;;
5475;SDS011;2760;50.000;9.194;2023-04-15T13:14:18;3.13;;;2.70;;
5475;SDS011;2760;50.000;9.194;2023-04-15T13:16:46;4.97;;;3.40;;
5475;SDS011;2760;50.000;9.194;2023-04-15T13:19:13;2.90;;;2.27;;
5475;SDS011;2760;50.000;9.194;2023-04-15T13:21:40;2.53;;;2.37;;
5475;SDS011;2760;50.000;9.194;2023-04-15T13:24:07;3.73;;;2.90;;
5475;SDS011;2760;50.000;9.194;2023-04-15T13:26:34;3.53;;;3.23;;
5475;SDS011;2760;50.000;9.194;2023-04-15T13:29:03;2.53;;;2.33;;
5475;SDS011;2760;50.000;9.194;2023-04-15T13:31:30;2.40;;;2.20;;
5475;SDS011;2760;50.000;9.194;2023-04-15T13:33:58;2.53;;;2.33;;
5475;SDS011;2760;50.000;9.194;2023-04-15T13:36:26;2.73;;;2.53;;
5475;SDS011;2760;50.000;9.194;2023-04-15T13:38:53;2.77;;;2.57;;
5475;SDS011;2760;50.000;9.194;2023-04-15T13:41:22;2.43;;;2.20;;
5475;SDS011;2760;50.000;9.194;2023-04-15T13:43:51;9.10;;;3.47;;
5475;SDS011;2760;50.000;9.194;2023-04-15T13:46:18;2.93;;;2.60;;
5475;SDS011;2760;50.000;9.194;2023-04-15T13:48:45;3.43;;;3.00;;
5475;SDS011;2760;50.000;9.194;2023-04-15T13:51:14;3.27;;;2.97;;
5475;SDS011;2760;50.000;9.194;2023-04-15T13:53:41;3.70;;;3.40;;
5475;SDS011;2760;50.000;9.194;2023-04-15T13:56:08;3.33;;;3.03;;
5475;SDS011;2760;50.000;9.194;2023-04-15T13:58:36;2.60;;;2.40;;
5475;SDS011;2760;50.000;9.194;2023-04-15T14:01:04;3.17;;;2.87;;
5475;SDS011;2760;50.000;9.194;2023-04-15T14:03:31;2.50;;;2.40;;
5475;SDS011;2760;50.000;9.194;2023-04-15T14:06:03;2.30;;;2.20;;
5475;SDS011;2760;50.000;9.194;2023-04-15T14:08:31;2.63;;;2.43;;
5475;SDS011;2760;50.000;9.194;2023-04-15T14:10:59;5.40;;;2.63;;
5475;SDS011;2760;50.000;9.194;2023-04-15T14:13:26;2.50;;;2.30;;
5475;SDS011;2760;50.000;9.194;2023-04-15T14:15:53;2.50;;;2.30;;
5475;SDS011;2760;50.000;9.194;2023-04-15T14:18:20;3.07;;;2.13;;
5475;SDS011;2760;50.000;9.194;2023-04-15T14:20:49;3.17;;;2.60;;
5475;SDS011;2760;50.000;9.194;2023-04-15T14:23:18;3.50;;;2.60;;
5475;SDS011;2760;50.000;9.194;2023-04-15T14:25:47;3.47;;;3.00;;
5475;SDS011;2760;50.000;9.194;2023-04-15T14:28:14;3.23;;;3.03;;
5475;SDS011;2760;50.000;9.194;2023-04-15T14:30:41;3.83;;;2.43;;
5475;SDS011;2760;50.000;9.194;2023-04-15T14:33:08;3.73;;;3.40;;
5475;SDS011;2760;50.000;9.194;2023-04-15T14:35:35;5.07;;;2.80;;
5475;SDS011;2760;50.000;9.194;2023-04-15T14:38:03;3.70;;;3.40;;
5475;SDS011;2760;50.000;9.194;2023-04-15T14:40:30;4.43;;;4.03;;
5475;SDS011;2760;50.000;9.194;2023-04-15T14:42:59;3.47;;;3.27;;
5475;SDS011;2760;50.000;9.194;2023-04-15T14:45:26;3.00;;;2.70;;
5475;SDS011;2760;50.000;9.194;2023-04-15T14:47:53;5.77;;;4.07;;
5475;SDS011;2760;50.000;9.194;2023-04-15T14:50:20;4.43;;;4.00;;
5475;SDS011;2760;50.000;9.194;2023-04-15T14:52:47;3.60;;;3.30;;
5475;SDS011;2760;50.000;9.194;2023-04-15T14:55:14;4.87;;;3.03;;
5475;SDS011;2760;50.000;9.194;2023-04-15T14:57:41;3.23;;;3.03;;
5475;SDS011;2760;50.000;9.194;2023-04-15T15:00:12;2.90;;;2.70;;
5475;SDS011;2760;50.000;9.194;2023-04-15T15:02:41;3.30;;;3.00;;
5475;SDS011;2760;50.000;9.194;2023-04-15T15:05:08;3.30;;;3.00;;
5475;SDS011;2760;50.000;9.194;2023-04-15T15:07:36;3.80;;;3.50;;
5475;SDS011;2760;50.000;9.194;2023-04-15T15:10:05;3.53;;;3.23;;
5475;SDS011;2760;50.000;9.194;2023-04-15T15:12:32;3.33;;;3.07;;
5475;SDS011;2760;50.000;9.194;2023-04-15T15:15:01;3.77;;;3.47;;
5475;SDS011;2760;50.000;9.194;2023-04-15T15:17:33;4.70;;;3.80;;
5475;SDS011;2760;50.000;9.194;2023-04-15T15:20:00;3.17;;;2.90;;